Alto, Georgia
Current Conditions -  °F | °C
As of 1:35 AM on Wednesday 26 Nov 2014 (Local Time) from KTOC Reporting Station
Moderate Rain Moderate Rain  
Wind Chill: 47°   Ceiling: 3600
Heat Index: 47°   Visibility: 5mi
Dew Point: 46°   Wind: 3mph
Humidity: 96%   Direction: 40°NE
Pressure: 30"   Gusts: NA
Location:  34.47°N, 83.57°W
Report Text: KTOC 260635Z AUTO 04003KT 5SM RA BKN036 BKN043 OVC060 09/08 A3000 RMK AO2 T00860080
Loading
Personal Weather Stations






























Interactive Weather Map New forecast layout! Learn more

10-Day Weather Forecast

Advertisements
Track Severe Weather on mobile